sensor_id;sensor_type;location;lat;lon;timestamp;temperature;humidity
38726;DHT22;24474;48.906;8.808;2022-07-23T00:01:42;24.40;95.00
38726;DHT22;24474;48.906;8.808;2022-07-23T00:04:07;24.40;95.20
38726;DHT22;24474;48.906;8.808;2022-07-23T00:06:33;24.30;95.10
38726;DHT22;24474;48.906;8.808;2022-07-23T00:08:58;24.30;95.10
38726;DHT22;24474;48.906;8.808;2022-07-23T00:11:24;24.30;95.20
38726;DHT22;24474;48.906;8.808;2022-07-23T00:13:50;24.30;95.30
38726;DHT22;24474;48.906;8.808;2022-07-23T00:16:16;24.30;94.70
38726;DHT22;24474;48.906;8.808;2022-07-23T00:18:41;24.20;94.50
38726;DHT22;24474;48.906;8.808;2022-07-23T00:21:08;24.20;94.70
38726;DHT22;24474;48.906;8.808;2022-07-23T00:23:35;24.20;94.30
38726;DHT22;24474;48.906;8.808;2022-07-23T00:26:01;24.20;94.30
38726;DHT22;24474;48.906;8.808;2022-07-23T00:28:28;24.20;94.30
38726;DHT22;24474;48.906;8.808;2022-07-23T00:30:54;24.10;94.20
38726;DHT22;24474;48.906;8.808;2022-07-23T00:33:19;24.10;94.40
38726;DHT22;24474;48.906;8.808;2022-07-23T00:35:45;24.10;94.40
38726;DHT22;24474;48.906;8.808;2022-07-23T00:38:11;24.10;94.70
38726;DHT22;24474;48.906;8.808;2022-07-23T00:40:37;24.10;95.50
38726;DHT22;24474;48.906;8.808;2022-07-23T00:43:05;24.00;95.70
38726;DHT22;24474;48.906;8.808;2022-07-23T00:45:33;24.00;95.80
38726;DHT22;24474;48.906;8.808;2022-07-23T00:47:59;23.90;95.80
38726;DHT22;24474;48.906;8.808;2022-07-23T00:50:24;23.90;95.80
38726;DHT22;24474;48.906;8.808;2022-07-23T00:52:52;23.80;95.20
38726;DHT22;24474;48.906;8.808;2022-07-23T00:55:18;23.80;95.20
38726;DHT22;24474;48.906;8.808;2022-07-23T00:57:45;23.70;94.80
38726;DHT22;24474;48.906;8.808;2022-07-23T01:00:14;23.70;94.70
38726;DHT22;24474;48.906;8.808;2022-07-23T01:02:40;23.70;94.60
38726;DHT22;24474;48.906;8.808;2022-07-23T01:05:07;23.80;94.60
38726;DHT22;24474;48.906;8.808;2022-07-23T01:07:33;23.70;94.60
38726;DHT22;24474;48.906;8.808;2022-07-23T01:09:59;23.80;94.60
38726;DHT22;24474;48.906;8.808;2022-07-23T01:12:25;23.70;94.50
38726;DHT22;24474;48.906;8.808;2022-07-23T01:14:59;23.80;94.50
38726;DHT22;24474;48.906;8.808;2022-07-23T01:17:25;23.70;94.40
38726;DHT22;24474;48.906;8.808;2022-07-23T01:19:51;23.70;94.30
38726;DHT22;24474;48.906;8.808;2022-07-23T01:22:19;23.70;94.30
38726;DHT22;24474;48.906;8.808;2022-07-23T01:24:46;23.70;94.30
38726;DHT22;24474;48.906;8.808;2022-07-23T01:27:12;23.70;94.30
38726;DHT22;24474;48.906;8.808;2022-07-23T01:29:38;23.70;94.20
38726;DHT22;24474;48.906;8.808;2022-07-23T01:32:05;23.60;93.80
38726;DHT22;24474;48.906;8.808;2022-07-23T01:34:30;23.60;93.80
38726;DHT22;24474;48.906;8.808;2022-07-23T01:36:56;23.60;93.60
38726;DHT22;24474;48.906;8.808;2022-07-23T01:39:25;23.60;93.50
38726;DHT22;24474;48.906;8.808;2022-07-23T01:41:50;23.60;93.60
38726;DHT22;24474;48.906;8.808;2022-07-23T01:44:18;23.50;93.20
38726;DHT22;24474;48.906;8.808;2022-07-23T01:46:43;23.50;93.10
38726;DHT22;24474;48.906;8.808;2022-07-23T01:49:09;23.60;93.20
38726;DHT22;24474;48.906;8.808;2022-07-23T01:51:35;23.50;93.30
38726;DHT22;24474;48.906;8.808;2022-07-23T01:54:01;23.50;93.10
38726;DHT22;24474;48.906;8.808;2022-07-23T01:56:26;23.50;93.20
38726;DHT22;24474;48.906;8.808;2022-07-23T01:58:53;23.40;93.20
38726;DHT22;24474;48.906;8.808;2022-07-23T02:01:19;23.40;93.40
38726;DHT22;24474;48.906;8.808;2022-07-23T02:03:44;23.40;93.30
38726;DHT22;24474;48.906;8.808;2022-07-23T02:06:10;23.30;93.40
38726;DHT22;24474;48.906;8.808;2022-07-23T02:08:36;23.30;93.30
38726;DHT22;24474;48.906;8.808;2022-07-23T02:11:02;23.20;93.10
38726;DHT22;24474;48.906;8.808;2022-07-23T02:13:27;23.20;92.90
38726;DHT22;24474;48.906;8.808;2022-07-23T02:15:54;23.20;93.10
38726;DHT22;24474;48.906;8.808;2022-07-23T02:18:21;23.20;93.20
38726;DHT22;24474;48.906;8.808;2022-07-23T02:20:51;23.20;93.20
38726;DHT22;24474;48.906;8.808;2022-07-23T02:23:17;23.20;93.40
38726;DHT22;24474;48.906;8.808;2022-07-23T02:25:44;23.10;93.70
38726;DHT22;24474;48.906;8.808;2022-07-23T02:28:11;23.10;93.90
38726;DHT22;24474;48.906;8.808;2022-07-23T02:30:37;23.10;93.60
38726;DHT22;24474;48.906;8.808;2022-07-23T02:33:04;23.10;93.50
38726;DHT22;24474;48.906;8.808;2022-07-23T02:35:30;23.10;93.50
38726;DHT22;24474;48.906;8.808;2022-07-23T02:37:56;23.10;93.40
38726;DHT22;24474;48.906;8.808;2022-07-23T02:40:21;23.00;93.40
38726;DHT22;24474;48.906;8.808;2022-07-23T02:42:47;23.00;93.40
38726;DHT22;24474;48.906;8.808;2022-07-23T02:45:13;23.00;93.30
38726;DHT22;24474;48.906;8.808;2022-07-23T02:47:39;22.90;93.20
38726;DHT22;24474;48.906;8.808;2022-07-23T02:50:06;22.90;93.30
38726;DHT22;24474;48.906;8.808;2022-07-23T02:52:32;22.90;93.30
38726;DHT22;24474;48.906;8.808;2022-07-23T02:54:58;22.90;93.40
38726;DHT22;24474;48.906;8.808;2022-07-23T02:57:25;22.90;93.40
38726;DHT22;24474;48.906;8.808;2022-07-23T02:59:51;22.90;93.80
38726;DHT22;24474;48.906;8.808;2022-07-23T03:02:17;22.90;93.80
38726;DHT22;24474;48.906;8.808;2022-07-23T03:04:42;22.90;93.50
38726;DHT22;24474;48.906;8.808;2022-07-23T03:07:08;22.80;94.00
38726;DHT22;24474;48.906;8.808;2022-07-23T03:09:34;22.90;94.30
38726;DHT22;24474;48.906;8.808;2022-07-23T03:11:59;22.90;94.20
38726;DHT22;24474;48.906;8.808;2022-07-23T03:14:25;22.90;94.30
38726;DHT22;24474;48.906;8.808;2022-07-23T03:16:54;22.80;94.30
38726;DHT22;24474;48.906;8.808;2022-07-23T03:19:20;22.80;94.30
38726;DHT22;24474;48.906;8.808;2022-07-23T03:21:47;22.80;94.20
38726;DHT22;24474;48.906;8.808;2022-07-23T03:24:12;22.70;94.50
38726;DHT22;24474;48.906;8.808;2022-07-23T03:26:38;22.70;94.90
38726;DHT22;24474;48.906;8.808;2022-07-23T03:29:12;22.70;94.60
38726;DHT22;24474;48.906;8.808;2022-07-23T03:31:37;22.70;94.70
38726;DHT22;24474;48.906;8.808;2022-07-23T03:34:03;22.70;94.30
38726;DHT22;24474;48.906;8.808;2022-07-23T03:36:31;22.60;94.70
38726;DHT22;24474;48.906;8.808;2022-07-23T03:38:57;22.60;95.40
38726;DHT22;24474;48.906;8.808;2022-07-23T03:41:22;22.50;95.80
38726;DHT22;24474;48.906;8.808;2022-07-23T03:43:52;22.50;95.70
38726;DHT22;24474;48.906;8.808;2022-07-23T03:46:18;22.50;95.50
38726;DHT22;24474;48.906;8.808;2022-07-23T03:48:45;22.50;95.30
38726;DHT22;24474;48.906;8.808;2022-07-23T03:51:10;22.50;95.00
38726;DHT22;24474;48.906;8.808;2022-07-23T03:53:36;22.50;94.90
38726;DHT22;24474;48.906;8.808;2022-07-23T03:56:03;22.50;95.50
38726;DHT22;24474;48.906;8.808;2022-07-23T03:58:29;22.50;95.90
38726;DHT22;24474;48.906;8.808;2022-07-23T04:00:54;22.50;96.30
38726;DHT22;24474;48.906;8.808;2022-07-23T04:03:20;22.40;96.20
38726;DHT22;24474;48.906;8.808;2022-07-23T04:05:47;22.40;96.20
38726;DHT22;24474;48.906;8.808;2022-07-23T04:08:13;22.40;96.30
38726;DHT22;24474;48.906;8.808;2022-07-23T04:10:39;22.40;96.30
38726;DHT22;24474;48.906;8.808;2022-07-23T04:13:05;22.40;96.40
38726;DHT22;24474;48.906;8.808;2022-07-23T04:15:31;22.30;96.30
38726;DHT22;24474;48.906;8.808;2022-07-23T04:17:56;22.30;96.10
38726;DHT22;24474;48.906;8.808;2022-07-23T04:20:22;22.20;96.20
38726;DHT22;24474;48.906;8.808;2022-07-23T04:22:47;22.20;96.00
38726;DHT22;24474;48.906;8.808;2022-07-23T04:25:15;22.20;96.70
38726;DHT22;24474;48.906;8.808;2022-07-23T04:27:45;22.20;96.00
38726;DHT22;24474;48.906;8.808;2022-07-23T04:30:10;22.20;96.30
38726;DHT22;24474;48.906;8.808;2022-07-23T04:32:36;22.20;96.20
38726;DHT22;24474;48.906;8.808;2022-07-23T04:35:03;22.20;96.30
38726;DHT22;24474;48.906;8.808;2022-07-23T04:37:32;22.20;96.20
38726;DHT22;24474;48.906;8.808;2022-07-23T04:40:01;22.20;96.20
38726;DHT22;24474;48.906;8.808;2022-07-23T04:42:27;22.20;96.30
38726;DHT22;24474;48.906;8.808;2022-07-23T04:44:52;22.20;96.50
38726;DHT22;24474;48.906;8.808;2022-07-23T04:47:18;22.20;96.50
38726;DHT22;24474;48.906;8.808;2022-07-23T04:49:44;22.30;96.40
38726;DHT22;24474;48.906;8.808;2022-07-23T04:52:09;22.30;96.30
38726;DHT22;24474;48.906;8.808;2022-07-23T04:54:35;22.30;96.90
38726;DHT22;24474;48.906;8.808;2022-07-23T04:57:02;22.30;96.80
38726;DHT22;24474;48.906;8.808;2022-07-23T04:59:28;22.30;96.10
38726;DHT22;24474;48.906;8.808;2022-07-23T05:01:53;22.40;96.20
38726;DHT22;24474;48.906;8.808;2022-07-23T05:04:19;22.30;96.30
38726;DHT22;24474;48.906;8.808;2022-07-23T05:06:44;22.30;96.10
38726;DHT22;24474;48.906;8.808;2022-07-23T05:09:10;22.40;96.20
38726;DHT22;24474;48.906;8.808;2022-07-23T05:11:37;22.40;96.30
38726;DHT22;24474;48.906;8.808;2022-07-23T05:14:04;22.30;96.50
38726;DHT22;24474;48.906;8.808;2022-07-23T05:16:31;22.40;96.40
38726;DHT22;24474;48.906;8.808;2022-07-23T05:18:56;22.40;96.30
38726;DHT22;24474;48.906;8.808;2022-07-23T05:21:23;22.40;96.20
38726;DHT22;24474;48.906;8.808;2022-07-23T05:23:49;22.50;96.90
38726;DHT22;24474;48.906;8.808;2022-07-23T05:26:15;22.50;97.40
38726;DHT22;24474;48.906;8.808;2022-07-23T05:28:42;22.40;97.40
38726;DHT22;24474;48.906;8.808;2022-07-23T05:31:07;22.40;97.40
38726;DHT22;24474;48.906;8.808;2022-07-23T05:33:33;22.40;96.10
38726;DHT22;24474;48.906;8.808;2022-07-23T05:36:04;22.30;95.70
38726;DHT22;24474;48.906;8.808;2022-07-23T05:38:30;22.30;95.90
38726;DHT22;24474;48.906;8.808;2022-07-23T05:40:56;22.20;96.00
38726;DHT22;24474;48.906;8.808;2022-07-23T05:43:23;22.20;96.00
38726;DHT22;24474;48.906;8.808;2022-07-23T05:45:49;22.10;96.40
38726;DHT22;24474;48.906;8.808;2022-07-23T05:48:14;22.10;96.80
38726;DHT22;24474;48.906;8.808;2022-07-23T05:50:40;22.00;97.50
38726;DHT22;24474;48.906;8.808;2022-07-23T05:53:06;22.00;97.80
38726;DHT22;24474;48.906;8.808;2022-07-23T05:55:31;21.90;98.20
38726;DHT22;24474;48.906;8.808;2022-07-23T05:57:59;21.90;99.10
38726;DHT22;24474;48.906;8.808;2022-07-23T06:00:25;21.90;98.60
38726;DHT22;24474;48.906;8.808;2022-07-23T06:02:51;21.90;99.20
38726;DHT22;24474;48.906;8.808;2022-07-23T06:05:18;21.90;99.80
38726;DHT22;24474;48.906;8.808;2022-07-23T06:07:44;21.90;99.90
38726;DHT22;24474;48.906;8.808;2022-07-23T06:10:11;21.90;99.80
38726;DHT22;24474;48.906;8.808;2022-07-23T06:12:37;21.90;99.10
38726;DHT22;24474;48.906;8.808;2022-07-23T06:15:04;21.90;99.60
38726;DHT22;24474;48.906;8.808;2022-07-23T06:17:29;21.90;99.50
38726;DHT22;24474;48.906;8.808;2022-07-23T06:19:57;21.90;99.20
38726;DHT22;24474;48.906;8.808;2022-07-23T06:22:23;21.90;99.40
38726;DHT22;24474;48.906;8.808;2022-07-23T06:24:50;21.90;99.90
38726;DHT22;24474;48.906;8.808;2022-07-23T06:27:17;21.90;99.90
38726;DHT22;24474;48.906;8.808;2022-07-23T06:29:43;21.80;99.90
38726;DHT22;24474;48.906;8.808;2022-07-23T06:32:11;21.60;99.90
38726;DHT22;24474;48.906;8.808;2022-07-23T06:34:37;21.40;99.90
38726;DHT22;24474;48.906;8.808;2022-07-23T06:37:03;21.30;99.90
38726;DHT22;24474;48.906;8.808;2022-07-23T06:39:28;21.30;99.90
38726;DHT22;24474;48.906;8.808;2022-07-23T06:41:54;21.30;99.90
38726;DHT22;24474;48.906;8.808;2022-07-23T06:44:20;21.20;99.90
38726;DHT22;24474;48.906;8.808;2022-07-23T06:46:45;21.00;99.90
38726;DHT22;24474;48.906;8.808;2022-07-23T06:49:11;21.00;99.90
38726;DHT22;24474;48.906;8.808;2022-07-23T06:51:36;21.00;99.90
38726;DHT22;24474;48.906;8.808;2022-07-23T06:54:03;21.10;99.90
38726;DHT22;24474;48.906;8.808;2022-07-23T06:56:29;21.00;99.90
38726;DHT22;24474;48.906;8.808;2022-07-23T06:58:55;21.00;99.90
38726;DHT22;24474;48.906;8.808;2022-07-23T07:01:20;21.10;99.90
38726;DHT22;24474;48.906;8.808;2022-07-23T07:03:47;21.10;99.90
38726;DHT22;24474;48.906;8.808;2022-07-23T07:06:12;21.10;99.90
38726;DHT22;24474;48.906;8.808;2022-07-23T07:08:38;21.20;99.90
38726;DHT22;24474;48.906;8.808;2022-07-23T07:11:04;21.20;99.90
38726;DHT22;24474;48.906;8.808;2022-07-23T07:13:30;21.30;99.90
38726;DHT22;24474;48.906;8.808;2022-07-23T07:15:55;21.40;99.90
38726;DHT22;24474;48.906;8.808;2022-07-23T07:18:21;21.40;99.90
38726;DHT22;24474;48.906;8.808;2022-07-23T07:20:47;21.50;99.90
38726;DHT22;24474;48.906;8.808;2022-07-23T07:23:13;21.50;99.90
38726;DHT22;24474;48.906;8.808;2022-07-23T07:25:38;21.60;99.90
38726;DHT22;24474;48.906;8.808;2022-07-23T07:28:04;21.60;99.90
38726;DHT22;24474;48.906;8.808;2022-07-23T07:30:30;21.70;99.90
38726;DHT22;24474;48.906;8.808;2022-07-23T07:32:55;21.80;99.90
38726;DHT22;24474;48.906;8.808;2022-07-23T07:35:21;21.90;99.90
38726;DHT22;24474;48.906;8.808;2022-07-23T07:37:49;22.00;99.90
38726;DHT22;24474;48.906;8.808;2022-07-23T07:40:15;22.00;99.90
38726;DHT22;24474;48.906;8.808;2022-07-23T07:42:48;22.00;99.90
38726;DHT22;24474;48.906;8.808;2022-07-23T07:45:14;22.00;99.90
38726;DHT22;24474;48.906;8.808;2022-07-23T07:47:41;22.00;99.90
38726;DHT22;24474;48.906;8.808;2022-07-23T07:50:07;21.90;99.90
38726;DHT22;24474;48.906;8.808;2022-07-23T07:52:35;21.90;99.90
38726;DHT22;24474;48.906;8.808;2022-07-23T07:55:08;21.90;99.90
38726;DHT22;24474;48.906;8.808;2022-07-23T07:57:35;21.80;99.90
38726;DHT22;24474;48.906;8.808;2022-07-23T08:00:05;21.70;99.90
38726;DHT22;24474;48.906;8.808;2022-07-23T08:02:43;21.70;99.90
38726;DHT22;24474;48.906;8.808;2022-07-23T08:05:09;21.70;99.90
38726;DHT22;24474;48.906;8.808;2022-07-23T08:07:35;21.70;99.90
38726;DHT22;24474;48.906;8.808;2022-07-23T08:10:00;21.70;99.90
38726;DHT22;24474;48.906;8.808;2022-07-23T08:12:26;21.80;99.90
38726;DHT22;24474;48.906;8.808;2022-07-23T08:14:52;21.80;99.90
38726;DHT22;24474;48.906;8.808;2022-07-23T08:17:18;21.80;99.90
38726;DHT22;24474;48.906;8.808;2022-07-23T08:19:43;21.80;99.90
38726;DHT22;24474;48.906;8.808;2022-07-23T08:22:09;21.90;99.90
38726;DHT22;24474;48.906;8.808;2022-07-23T08:24:35;21.90;99.90
38726;DHT22;24474;48.906;8.808;2022-07-23T08:27:01;21.90;99.90
38726;DHT22;24474;48.906;8.808;2022-07-23T08:29:26;21.90;99.90
38726;DHT22;24474;48.906;8.808;2022-07-23T08:31:52;22.00;99.90
38726;DHT22;24474;48.906;8.808;2022-07-23T08:34:17;22.10;99.90
38726;DHT22;24474;48.906;8.808;2022-07-23T08:36:43;22.10;99.90
38726;DHT22;24474;48.906;8.808;2022-07-23T08:39:09;22.30;99.90
38726;DHT22;24474;48.906;8.808;2022-07-23T08:41:35;22.40;99.90
38726;DHT22;24474;48.906;8.808;2022-07-23T08:44:00;22.50;99.90
38726;DHT22;24474;48.906;8.808;2022-07-23T08:46:27;22.50;99.90
38726;DHT22;24474;48.906;8.808;2022-07-23T08:48:54;22.60;99.90
38726;DHT22;24474;48.906;8.808;2022-07-23T08:51:20;22.60;99.90
38726;DHT22;24474;48.906;8.808;2022-07-23T08:53:46;22.80;99.90
38726;DHT22;24474;48.906;8.808;2022-07-23T08:56:13;22.80;99.90
38726;DHT22;24474;48.906;8.808;2022-07-23T08:58:39;22.80;99.90
38726;DHT22;24474;48.906;8.808;2022-07-23T09:01:04;22.80;99.90
38726;DHT22;24474;48.906;8.808;2022-07-23T09:03:32;22.80;99.90
38726;DHT22;24474;48.906;8.808;2022-07-23T09:05:59;22.80;99.90
38726;DHT22;24474;48.906;8.808;2022-07-23T09:08:37;22.80;99.90
38726;DHT22;24474;48.906;8.808;2022-07-23T09:11:05;22.80;99.90
38726;DHT22;24474;48.906;8.808;2022-07-23T09:13:51;22.80;99.90
38726;DHT22;24474;48.906;8.808;2022-07-23T09:18:55;22.90;99.90
38726;DHT22;24474;48.906;8.808;2022-07-23T09:21:30;22.90;99.90
38726;DHT22;24474;48.906;8.808;2022-07-23T09:26:27;22.90;99.90
38726;DHT22;24474;48.906;8.808;2022-07-23T09:31:51;23.10;99.90
38726;DHT22;24474;48.906;8.808;2022-07-23T09:34:21;23.20;99.90
38726;DHT22;24474;48.906;8.808;2022-07-23T09:36:47;23.20;99.90
38726;DHT22;24474;48.906;8.808;2022-07-23T09:39:15;23.20;99.90
38726;DHT22;24474;48.906;8.808;2022-07-23T09:41:47;23.20;99.90
38726;DHT22;24474;48.906;8.808;2022-07-23T09:44:15;23.20;99.90
38726;DHT22;24474;48.906;8.808;2022-07-23T09:46:42;23.20;99.90
38726;DHT22;24474;48.906;8.808;2022-07-23T09:49:21;23.30;99.90
38726;DHT22;24474;48.906;8.808;2022-07-23T09:54:37;23.40;99.90
38726;DHT22;24474;48.906;8.808;2022-07-23T09:57:08;23.50;99.90
38726;DHT22;24474;48.906;8.808;2022-07-23T09:59:40;23.50;99.90
38726;DHT22;24474;48.906;8.808;2022-07-23T10:02:08;23.60;99.90
38726;DHT22;24474;48.906;8.808;2022-07-23T10:04:35;23.60;99.90
38726;DHT22;24474;48.906;8.808;2022-07-23T10:07:05;23.70;99.90
38726;DHT22;24474;48.906;8.808;2022-07-23T10:09:38;23.80;99.90
38726;DHT22;24474;48.906;8.808;2022-07-23T10:12:09;23.80;99.90
38726;DHT22;24474;48.906;8.808;2022-07-23T10:14:46;23.90;99.90
38726;DHT22;24474;48.906;8.808;2022-07-23T10:17:13;24.00;99.90
38726;DHT22;24474;48.906;8.808;2022-07-23T10:19:39;24.10;99.10
38726;DHT22;24474;48.906;8.808;2022-07-23T10:22:08;24.10;98.70
38726;DHT22;24474;48.906;8.808;2022-07-23T10:29:42;24.40;97.30
38726;DHT22;24474;48.906;8.808;2022-07-23T10:35:29;24.40;97.80
38726;DHT22;24474;48.906;8.808;2022-07-23T10:38:02;24.40;97.50
38726;DHT22;24474;48.906;8.808;2022-07-23T10:40:32;24.50;97.40
38726;DHT22;24474;48.906;8.808;2022-07-23T10:43:00;24.60;96.30
38726;DHT22;24474;48.906;8.808;2022-07-23T10:45:34;24.60;97.40
38726;DHT22;24474;48.906;8.808;2022-07-23T10:53:56;24.80;97.50
38726;DHT22;24474;48.906;8.808;2022-07-23T10:57:04;24.80;97.20
38726;DHT22;24474;48.906;8.808;2022-07-23T10:59:31;24.90;96.60
38726;DHT22;24474;48.906;8.808;2022-07-23T11:02:20;25.00;97.00
38726;DHT22;24474;48.906;8.808;2022-07-23T11:04:53;25.00;97.10
38726;DHT22;24474;48.906;8.808;2022-07-23T11:07:19;25.10;96.90
38726;DHT22;24474;48.906;8.808;2022-07-23T11:09:47;25.10;97.10
38726;DHT22;24474;48.906;8.808;2022-07-23T11:15:21;25.20;97.70
38726;DHT22;24474;48.906;8.808;2022-07-23T11:20:15;25.20;98.00
38726;DHT22;24474;48.906;8.808;2022-07-23T11:25:11;25.40;96.60
38726;DHT22;24474;48.906;8.808;2022-07-23T11:27:42;25.40;96.70
38726;DHT22;24474;48.906;8.808;2022-07-23T11:30:09;25.50;96.80
38726;DHT22;24474;48.906;8.808;2022-07-23T11:32:40;25.60;96.10
38726;DHT22;24474;48.906;8.808;2022-07-23T11:35:26;25.60;96.00
38726;DHT22;24474;48.906;8.808;2022-07-23T11:37:54;25.60;96.00
38726;DHT22;24474;48.906;8.808;2022-07-23T11:40:27;25.60;95.50
38726;DHT22;24474;48.906;8.808;2022-07-23T11:42:59;25.70;95.50
38726;DHT22;24474;48.906;8.808;2022-07-23T11:45:34;25.70;94.80
38726;DHT22;24474;48.906;8.808;2022-07-23T11:48:00;25.80;94.50
38726;DHT22;24474;48.906;8.808;2022-07-23T11:50:26;25.80;93.90
38726;DHT22;24474;48.906;8.808;2022-07-23T11:52:53;25.90;93.60
38726;DHT22;24474;48.906;8.808;2022-07-23T11:55:19;25.90;93.40
38726;DHT22;24474;48.906;8.808;2022-07-23T11:57:46;25.90;93.90
38726;DHT22;24474;48.906;8.808;2022-07-23T12:00:17;25.90;93.40
38726;DHT22;24474;48.906;8.808;2022-07-23T12:02:45;26.00;94.30
38726;DHT22;24474;48.906;8.808;2022-07-23T12:05:13;26.00;93.20
38726;DHT22;24474;48.906;8.808;2022-07-23T12:07:43;26.10;93.90
38726;DHT22;24474;48.906;8.808;2022-07-23T12:12:48;26.10;93.40
38726;DHT22;24474;48.906;8.808;2022-07-23T12:15:20;26.30;94.00
38726;DHT22;24474;48.906;8.808;2022-07-23T12:17:48;26.30;93.30
38726;DHT22;24474;48.906;8.808;2022-07-23T12:20:16;26.30;93.00
38726;DHT22;24474;48.906;8.808;2022-07-23T12:22:52;26.30;93.60
38726;DHT22;24474;48.906;8.808;2022-07-23T12:25:21;26.40;93.90
38726;DHT22;24474;48.906;8.808;2022-07-23T12:28:08;26.50;93.90
38726;DHT22;24474;48.906;8.808;2022-07-23T12:30:55;26.60;93.70
38726;DHT22;24474;48.906;8.808;2022-07-23T12:33:30;26.70;93.90
38726;DHT22;24474;48.906;8.808;2022-07-23T12:35:58;26.70;93.50
38726;DHT22;24474;48.906;8.808;2022-07-23T12:38:26;26.70;93.10
38726;DHT22;24474;48.906;8.808;2022-07-23T12:40:58;26.70;92.70
38726;DHT22;24474;48.906;8.808;2022-07-23T12:43:33;26.70;93.00
38726;DHT22;24474;48.906;8.808;2022-07-23T12:46:10;26.70;93.50
38726;DHT22;24474;48.906;8.808;2022-07-23T12:48:51;26.70;93.50
38726;DHT22;24474;48.906;8.808;2022-07-23T12:51:24;26.80;93.70
38726;DHT22;24474;48.906;8.808;2022-07-23T12:54:12;26.80;93.00
38726;DHT22;24474;48.906;8.808;2022-07-23T12:56:40;26.90;92.90
38726;DHT22;24474;48.906;8.808;2022-07-23T12:59:16;26.80;92.80
38726;DHT22;24474;48.906;8.808;2022-07-23T13:01:42;26.70;91.80
38726;DHT22;24474;48.906;8.808;2022-07-23T13:04:19;26.70;92.50
38726;DHT22;24474;48.906;8.808;2022-07-23T13:09:15;26.70;93.10
38726;DHT22;24474;48.906;8.808;2022-07-23T13:11:42;26.90;91.30
38726;DHT22;24474;48.906;8.808;2022-07-23T13:14:08;26.90;91.30
38726;DHT22;24474;48.906;8.808;2022-07-23T13:16:34;26.90;91.00
38726;DHT22;24474;48.906;8.808;2022-07-23T13:19:00;27.00;90.50
38726;DHT22;24474;48.906;8.808;2022-07-23T13:21:27;27.00;90.80
38726;DHT22;24474;48.906;8.808;2022-07-23T13:23:53;27.10;91.40
38726;DHT22;24474;48.906;8.808;2022-07-23T13:26:19;27.10;90.10
38726;DHT22;24474;48.906;8.808;2022-07-23T13:28:45;27.20;90.30
38726;DHT22;24474;48.906;8.808;2022-07-23T13:31:11;27.20;90.20
38726;DHT22;24474;48.906;8.808;2022-07-23T13:33:37;27.20;91.00
38726;DHT22;24474;48.906;8.808;2022-07-23T13:36:03;27.20;90.20
38726;DHT22;24474;48.906;8.808;2022-07-23T13:38:29;27.10;89.50
38726;DHT22;24474;48.906;8.808;2022-07-23T13:40:54;27.10;91.00
38726;DHT22;24474;48.906;8.808;2022-07-23T13:43:23;27.20;90.30
38726;DHT22;24474;48.906;8.808;2022-07-23T13:45:50;27.20;91.20
38726;DHT22;24474;48.906;8.808;2022-07-23T13:48:17;27.20;90.80
38726;DHT22;24474;48.906;8.808;2022-07-23T13:50:44;27.20;90.90
38726;DHT22;24474;48.906;8.808;2022-07-23T13:53:19;27.30;91.70
38726;DHT22;24474;48.906;8.808;2022-07-23T13:55:46;27.50;90.40
38726;DHT22;24474;48.906;8.808;2022-07-23T13:58:13;27.50;90.90
38726;DHT22;24474;48.906;8.808;2022-07-23T14:00:43;27.50;90.80
38726;DHT22;24474;48.906;8.808;2022-07-23T14:03:09;27.50;91.10
38726;DHT22;24474;48.906;8.808;2022-07-23T14:05:35;27.50;89.20
38726;DHT22;24474;48.906;8.808;2022-07-23T14:08:02;27.50;90.00
38726;DHT22;24474;48.906;8.808;2022-07-23T14:10:28;27.50;90.70
38726;DHT22;24474;48.906;8.808;2022-07-23T14:12:54;27.50;90.00
38726;DHT22;24474;48.906;8.808;2022-07-23T14:15:22;27.50;90.00
38726;DHT22;24474;48.906;8.808;2022-07-23T14:17:47;27.60;90.20
38726;DHT22;24474;48.906;8.808;2022-07-23T14:20:14;27.70;90.00
38726;DHT22;24474;48.906;8.808;2022-07-23T14:22:40;27.70;89.70
38726;DHT22;24474;48.906;8.808;2022-07-23T14:25:07;27.70;89.80
38726;DHT22;24474;48.906;8.808;2022-07-23T14:27:34;27.70;90.00
38726;DHT22;24474;48.906;8.808;2022-07-23T14:30:00;27.60;89.10
38726;DHT22;24474;48.906;8.808;2022-07-23T14:32:27;27.60;89.40
38726;DHT22;24474;48.906;8.808;2022-07-23T14:34:52;27.60;89.80
38726;DHT22;24474;48.906;8.808;2022-07-23T14:37:18;27.80;89.80
38726;DHT22;24474;48.906;8.808;2022-07-23T14:39:44;27.80;89.10
38726;DHT22;24474;48.906;8.808;2022-07-23T14:42:11;27.80;90.10
38726;DHT22;24474;48.906;8.808;2022-07-23T14:44:37;27.80;90.40
38726;DHT22;24474;48.906;8.808;2022-07-23T14:47:04;27.80;90.10
38726;DHT22;24474;48.906;8.808;2022-07-23T14:49:33;27.80;90.10
38726;DHT22;24474;48.906;8.808;2022-07-23T14:52:00;27.90;89.00
38726;DHT22;24474;48.906;8.808;2022-07-23T14:54:27;27.90;90.20
38726;DHT22;24474;48.906;8.808;2022-07-23T14:56:55;27.90;89.50
38726;DHT22;24474;48.906;8.808;2022-07-23T14:59:21;27.80;90.10
38726;DHT22;24474;48.906;8.808;2022-07-23T15:01:47;27.80;90.30
38726;DHT22;24474;48.906;8.808;2022-07-23T15:04:13;27.80;90.60
38726;DHT22;24474;48.906;8.808;2022-07-23T15:06:39;27.90;89.50
38726;DHT22;24474;48.906;8.808;2022-07-23T15:09:05;27.90;89.00
38726;DHT22;24474;48.906;8.808;2022-07-23T15:11:31;28.00;89.10
38726;DHT22;24474;48.906;8.808;2022-07-23T15:14:00;28.10;89.00
38726;DHT22;24474;48.906;8.808;2022-07-23T15:16:26;28.10;89.00
38726;DHT22;24474;48.906;8.808;2022-07-23T15:18:52;28.10;87.40
38726;DHT22;24474;48.906;8.808;2022-07-23T15:21:17;28.10;86.90
38726;DHT22;24474;48.906;8.808;2022-07-23T15:23:43;28.00;88.10
38726;DHT22;24474;48.906;8.808;2022-07-23T15:26:08;28.10;88.20
38726;DHT22;24474;48.906;8.808;2022-07-23T15:28:35;28.20;87.20
38726;DHT22;24474;48.906;8.808;2022-07-23T15:31:01;28.30;88.00
38726;DHT22;24474;48.906;8.808;2022-07-23T15:33:27;28.30;85.30
38726;DHT22;24474;48.906;8.808;2022-07-23T15:35:53;28.40;84.30
38726;DHT22;24474;48.906;8.808;2022-07-23T15:38:21;28.50;84.00
38726;DHT22;24474;48.906;8.808;2022-07-23T15:40:47;28.40;86.30
38726;DHT22;24474;48.906;8.808;2022-07-23T15:43:14;28.50;85.60
38726;DHT22;24474;48.906;8.808;2022-07-23T15:45:40;28.50;85.60
38726;DHT22;24474;48.906;8.808;2022-07-23T15:48:06;28.50;85.70
38726;DHT22;24474;48.906;8.808;2022-07-23T15:50:31;28.50;85.60
38726;DHT22;24474;48.906;8.808;2022-07-23T15:52:57;28.30;85.90
38726;DHT22;24474;48.906;8.808;2022-07-23T15:55:23;28.20;85.90
38726;DHT22;24474;48.906;8.808;2022-07-23T15:57:50;28.00;86.70
38726;DHT22;24474;48.906;8.808;2022-07-23T16:00:16;28.00;87.80
38726;DHT22;24474;48.906;8.808;2022-07-23T16:02:41;27.90;87.30
38726;DHT22;24474;48.906;8.808;2022-07-23T16:05:07;27.90;87.40
38726;DHT22;24474;48.906;8.808;2022-07-23T16:07:51;27.80;88.60
38726;DHT22;24474;48.906;8.808;2022-07-23T16:10:18;27.80;90.00